Time;durP1;ratioP1;P1;durP2;ratioP2;P2;SDS_P1;SDS_P2;PMS_P1;PMS_P2;Temp;Humidity;BMP_temperature;BMP_pressure;BME280_temperature;BME280_humidity;BME280_pressure;Samples;Min_cycle;Max_cycle;Signal;HPM_P1;HPM_P2
2022/03/01 00:00:21;;;;;;;14.83;11.57;;;;;;;-148.33;100.00;56587.81;5048168;28;20028;-64
2022/03/01 00:02:47;;;;;;;16.27;12.50;;;;;;;-148.33;100.00;56587.81;5041503;28;20021;-64
2022/03/01 00:05:13;;;;;;;15.20;11.73;;;;;;;-148.33;100.00;56587.81;5048191;28;20350;-64
2022/03/01 00:07:38;;;;;;;15.07;11.90;;;;;;;-148.33;100.00;56587.81;5047884;28;20317;-64
2022/03/01 00:10:04;;;;;;;15.70;12.03;;;;;;;-148.33;100.00;56587.81;5048230;28;20029;-63
2022/03/01 00:12:29;;;;;;;18.17;12.17;;;;;;;-148.33;100.00;56587.81;5047899;28;20443;-64
2022/03/01 00:14:55;;;;;;;13.57;12.00;;;;;;;-148.33;100.00;56587.81;5047594;28;20040;-64
2022/03/01 00:17:20;;;;;;;16.10;11.93;;;;;;;-148.33;100.00;56587.81;5047619;28;20033;-64
2022/03/01 00:19:46;;;;;;;15.47;11.53;;;;;;;-148.33;100.00;56587.81;5047987;28;20074;-64
2022/03/01 00:22:11;;;;;;;15.07;11.90;;;;;;;-148.33;100.00;56587.81;5047711;28;20036;-64
2022/03/01 00:24:36;;;;;;;14.07;11.27;;;;;;;-148.33;100.00;56587.81;5047868;28;20032;-64
2022/03/01 00:27:02;;;;;;;14.27;11.77;;;;;;;-148.33;100.00;56587.81;5047873;28;20411;-64
2022/03/01 00:29:27;;;;;;;15.07;12.07;;;;;;;-148.33;100.00;56587.81;5047838;28;20025;-64
2022/03/01 00:31:53;;;;;;;15.77;13.20;;;;;;;-148.33;100.00;56587.81;4783544;28;7600487;-64
2022/03/01 00:34:18;;;;;;;14.07;12.07;;;;;;;-148.33;100.00;56587.81;5048584;28;20056;-64
2022/03/01 00:36:43;;;;;;;16.47;12.67;;;;;;;-148.33;100.00;56587.81;5048351;28;20025;-63
2022/03/01 00:39:09;;;;;;;14.20;11.33;;;;;;;-148.33;100.00;56587.81;5048392;28;20021;-64
2022/03/01 00:41:35;;;;;;;14.73;12.23;;;;;;;-148.33;100.00;56587.81;5048646;28;20025;-64
2022/03/01 00:44:00;;;;;;;15.20;11.43;;;;;;;-148.33;100.00;56587.81;5048756;28;20033;-64
2022/03/01 00:46:26;;;;;;;14.00;11.60;;;;;;;-148.33;100.00;56587.81;5048921;28;20461;-63
2022/03/01 00:48:56;;;;;;;14.07;11.27;;;;;;;-148.33;100.00;56587.81;5048392;28;20025;-64
2022/03/01 00:51:22;;;;;;;16.43;11.80;;;;;;;-148.33;100.00;56587.81;5048248;28;20424;-64
2022/03/01 00:53:48;;;;;;;16.93;12.57;;;;;;;-148.33;100.00;56587.81;5048761;28;20032;-64
2022/03/01 00:56:13;;;;;;;15.50;11.60;;;;;;;-148.33;100.00;56587.81;5048506;28;20452;-64
2022/03/01 00:58:38;;;;;;;13.77;11.83;;;;;;;-148.33;100.00;56587.81;5048416;28;20025;-64
2022/03/01 01:01:04;;;;;;;15.30;11.53;;;;;;;-148.33;100.00;56587.81;5048524;28;20028;-64
2022/03/01 01:03:29;;;;;;;15.40;10.93;;;;;;;-148.33;100.00;56587.81;5051587;28;20112;-64
2022/03/01 01:05:54;;;;;;;15.30;12.13;;;;;;;-148.33;100.00;56587.81;5051801;28;20028;-63
2022/03/01 01:08:21;;;;;;;15.27;12.30;;;;;;;-148.33;100.00;56587.81;5033970;28;20032;-64
2022/03/01 01:10:46;;;;;;;14.60;11.70;;;;;;;-148.33;100.00;56587.81;5052056;28;20108;-64
2022/03/01 01:13:15;;;;;;;15.90;11.60;;;;;;;-148.33;100.00;56587.81;5051523;28;20023;-64
2022/03/01 01:15:42;;;;;;;15.27;12.23;;;;;;;-148.33;100.00;56587.81;5051376;28;20046;-64
2022/03/01 01:18:08;;;;;;;15.63;12.40;;;;;;;-148.33;100.00;56587.81;5051619;28;20039;-63
2022/03/01 01:20:34;;;;;;;14.40;11.80;;;;;;;-148.33;100.00;56587.81;5033647;28;20074;-64
2022/03/01 01:22:59;;;;;;;16.30;11.63;;;;;;;-148.33;100.00;56587.81;5051332;28;20447;-64
2022/03/01 01:25:25;;;;;;;15.00;11.27;;;;;;;-148.33;100.00;56587.81;5051470;28;20025;-64
2022/03/01 01:27:56;;;;;;;18.43;12.33;;;;;;;-148.33;100.00;56587.81;5033376;28;20024;-64
2022/03/01 01:30:25;;;;;;;12.98;11.48;;;;;;;-148.33;100.00;56587.81;5050938;28;20052;-64
2022/03/01 01:32:50;;;;;;;14.20;12.30;;;;;;;-148.33;100.00;56587.81;5051275;28;20025;-64
2022/03/01 01:35:19;;;;;;;15.57;12.47;;;;;;;-148.33;100.00;56587.81;5051195;28;20017;-64
2022/03/01 01:37:44;;;;;;;14.00;11.47;;;;;;;-148.33;100.00;56587.81;5051573;28;20580;-64
2022/03/01 01:40:13;;;;;;;18.77;13.50;;;;;;;-148.33;100.00;56587.81;5051226;28;20032;-64
2022/03/01 01:42:39;;;;;;;19.30;13.13;;;;;;;-148.33;100.00;56587.81;5050953;28;20037;-64
2022/03/01 01:45:05;;;;;;;14.80;11.60;;;;;;;-148.33;100.00;56587.81;5044384;28;20031;-64
2022/03/01 01:47:31;;;;;;;17.03;12.33;;;;;;;-148.33;100.00;56587.81;5051142;28;20245;-64
2022/03/01 01:49:56;;;;;;;16.87;12.50;;;;;;;-148.33;100.00;56587.81;5050947;28;20131;-63
2022/03/01 01:52:25;;;;;;;15.80;12.60;;;;;;;-148.33;100.00;56587.81;5050963;28;20037;-63
2022/03/01 01:54:50;;;;;;;18.43;12.50;;;;;;;-148.33;100.00;56587.81;5050807;28;20024;-64
2022/03/01 01:57:19;;;;;;;16.93;12.20;;;;;;;-148.33;100.00;56587.81;5044271;28;20021;-64
2022/03/01 01:59:45;;;;;;;15.63;12.30;;;;;;;-148.33;100.00;56587.81;5050612;28;20029;-64
2022/03/01 02:02:12;;;;;;;15.47;12.40;;;;;;;-148.33;100.00;56587.81;5050976;28;20029;-64
2022/03/01 02:04:38;;;;;;;17.30;13.57;;;;;;;-148.33;100.00;56587.81;5050857;28;20033;-64
2022/03/01 02:07:03;;;;;;;17.10;13.27;;;;;;;-148.33;100.00;56587.81;5050592;28;20433;-64
2022/03/01 02:09:28;;;;;;;15.90;13.10;;;;;;;-148.33;100.00;56587.81;5050817;28;20029;-64
2022/03/01 02:11:54;;;;;;;16.40;12.30;;;;;;;-148.33;100.00;56587.81;5050699;28;20021;-64
2022/03/01 02:14:19;;;;;;;17.83;12.80;;;;;;;-148.33;100.00;56587.81;5049472;28;20421;-64
2022/03/01 02:16:44;;;;;;;17.40;12.53;;;;;;;-148.33;100.00;56587.81;5049585;28;20028;-63
2022/03/01 02:19:13;;;;;;;15.27;12.77;;;;;;;-148.33;100.00;56587.81;5048868;28;20040;-64
2022/03/01 02:21:49;;;;;;;16.43;12.73;;;;;;;-148.33;100.00;56587.81;5050562;28;20065;-64
2022/03/01 02:24:16;;;;;;;14.47;12.23;;;;;;;-148.33;100.00;56587.81;5050541;28;20373;-64
2022/03/01 02:26:41;;;;;;;17.40;12.87;;;;;;;-148.33;100.00;56587.81;5050574;28;20032;-64
2022/03/01 02:29:07;;;;;;;15.77;12.50;;;;;;;-148.33;100.00;56587.81;5050123;28;20070;-64
2022/03/01 02:31:32;;;;;;;15.70;13.13;;;;;;;-148.33;100.00;56587.81;5049945;28;20052;-63
2022/03/01 02:33:58;;;;;;;15.40;12.10;;;;;;;-148.33;100.00;56587.81;5050205;28;20113;-64
2022/03/01 02:36:23;;;;;;;13.50;11.83;;;;;;;-148.33;100.00;56587.81;5050185;28;20035;-64
2022/03/01 02:38:49;;;;;;;16.87;13.27;;;;;;;-148.33;100.00;56587.81;5050363;28;20547;-64
2022/03/01 02:41:14;;;;;;;16.33;13.53;;;;;;;-148.33;100.00;56587.81;5050236;28;20063;-64
2022/03/01 02:43:39;;;;;;;16.07;12.73;;;;;;;-148.33;100.00;56587.81;5049585;28;20079;-64
2022/03/01 02:46:05;;;;;;;17.57;13.13;;;;;;;-148.33;100.00;56587.81;5049894;28;20452;-64
2022/03/01 02:48:30;;;;;;;16.73;12.30;;;;;;;-148.33;100.00;56587.81;5049922;28;20489;-64
2022/03/01 02:50:55;;;;;;;16.67;13.27;;;;;;;-148.33;100.00;56587.81;5050144;28;20025;-64
2022/03/01 02:53:21;;;;;;;15.87;11.80;;;;;;;-148.33;100.00;56587.81;5049629;28;20032;-64
2022/03/01 02:55:46;;;;;;;17.07;12.87;;;;;;;-148.33;100.00;56587.81;5049665;28;20032;-64
2022/03/01 02:58:11;;;;;;;16.70;12.57;;;;;;;-148.33;100.00;56587.81;5049581;28;20047;-63
2022/03/01 03:00:38;;;;;;;17.33;13.17;;;;;;;-148.33;100.00;56587.81;5049590;28;20091;-63
2022/03/01 03:03:03;;;;;;;16.70;12.40;;;;;;;-148.33;100.00;56587.81;5049487;28;20033;-63
2022/03/01 03:05:28;;;;;;;14.57;11.90;;;;;;;-148.33;100.00;56587.81;5047168;28;20031;-63
2022/03/01 03:07:54;;;;;;;15.40;12.50;;;;;;;-148.33;100.00;56587.81;5045535;28;20024;-63
2022/03/01 03:10:19;;;;;;;16.80;12.20;;;;;;;-148.33;100.00;56587.81;5049623;28;20029;-64
2022/03/01 03:12:45;;;;;;;15.13;12.37;;;;;;;-148.33;100.00;56587.81;5049694;28;20098;-64
2022/03/01 03:15:10;;;;;;;18.07;12.83;;;;;;;-148.33;100.00;56587.81;5049123;28;20393;-64
2022/03/01 03:17:36;;;;;;;17.37;12.70;;;;;;;-148.33;100.00;56587.81;5049398;28;20032;-64
2022/03/01 03:20:03;;;;;;;16.77;12.53;;;;;;;-148.33;100.00;56587.81;5049150;28;20036;-63
2022/03/01 03:22:29;;;;;;;16.43;12.57;;;;;;;-148.33;100.00;56587.81;5049476;28;20035;-63
2022/03/01 03:24:55;;;;;;;15.20;12.40;;;;;;;-148.33;100.00;56587.81;5049128;28;20029;-64
2022/03/01 03:27:20;;;;;;;14.60;12.33;;;;;;;-148.33;100.00;56587.81;5049186;28;20078;-64
2022/03/01 03:29:46;;;;;;;15.23;12.57;;;;;;;-148.33;100.00;56587.81;5048910;28;20029;-64
2022/03/01 03:32:11;;;;;;;16.03;12.33;;;;;;;-148.33;100.00;56587.81;5049384;28;20025;-64
2022/03/01 03:34:37;;;;;;;17.73;13.27;;;;;;;-148.33;100.00;56587.81;5049209;28;20404;-64
2022/03/01 03:37:03;;;;;;;16.70;13.50;;;;;;;-148.33;100.00;56587.81;5049420;28;20025;-63
2022/03/01 03:39:29;;;;;;;15.70;13.20;;;;;;;-148.33;100.00;56587.81;5049055;28;20098;-63
2022/03/01 03:41:54;;;;;;;17.53;12.67;;;;;;;-148.33;100.00;56587.81;5031040;28;20057;-64
2022/03/01 03:44:20;;;;;;;15.70;13.17;;;;;;;-148.33;100.00;56587.81;5048757;28;20491;-63
2022/03/01 03:46:45;;;;;;;17.37;13.10;;;;;;;-148.33;100.00;56587.81;5049293;28;20048;-64
2022/03/01 03:49:10;;;;;;;17.83;13.40;;;;;;;-148.33;100.00;56587.81;5048943;28;20063;-63
2022/03/01 03:51:36;;;;;;;20.63;13.40;;;;;;;-148.33;100.00;56587.81;5048819;28;20025;-64
2022/03/01 03:54:01;;;;;;;17.43;13.60;;;;;;;-148.33;100.00;56587.81;5048951;28;20055;-64
2022/03/01 03:56:26;;;;;;;16.03;13.07;;;;;;;-148.33;100.00;56587.81;5048974;28;20491;-63
2022/03/01 04:02:13;;;;;;;16.92;12.63;;;;;;;-148.33;100.00;56587.81;5048661;28;20075;-63
2022/03/01 04:04:39;;;;;;;16.27;13.27;;;;;;;-148.33;100.00;56587.81;5048835;28;20029;-64
2022/03/01 04:07:05;;;;;;;16.17;13.47;;;;;;;-148.33;100.00;56587.81;5049090;28;20033;-63
2022/03/01 04:09:30;;;;;;;16.27;13.27;;;;;;;-148.33;100.00;56587.81;5048830;28;20489;-64
2022/03/01 04:11:55;;;;;;;16.53;13.07;;;;;;;-148.33;100.00;56587.81;5048846;28;20051;-64
2022/03/01 04:14:21;;;;;;;17.93;13.17;;;;;;;-148.33;100.00;56587.81;5049027;28;20025;-64
2022/03/01 04:16:46;;;;;;;15.43;13.40;;;;;;;-148.33;100.00;56587.81;5048654;28;20400;-64
2022/03/01 04:19:12;;;;;;;17.63;12.33;;;;;;;-148.33;100.00;56587.81;5049124;28;20064;-64
2022/03/01 04:21:39;;;;;;;16.50;13.40;;;;;;;-148.33;100.00;56587.81;5048665;28;20264;-64
2022/03/01 04:24:06;;;;;;;18.27;13.23;;;;;;;-148.33;100.00;56587.81;5048474;28;20503;-63
2022/03/01 04:26:31;;;;;;;16.83;12.87;;;;;;;-148.33;100.00;56587.81;5048961;28;20020;-64
2022/03/01 04:28:56;;;;;;;16.47;13.07;;;;;;;-148.33;100.00;56587.81;5048476;28;20032;-64
2022/03/01 04:31:22;;;;;;;15.50;12.90;;;;;;;-148.33;100.00;56587.81;5048431;28;20362;-64
2022/03/01 04:33:48;;;;;;;19.00;12.93;;;;;;;-148.33;100.00;56587.81;5048405;28;20025;-62
2022/03/01 04:36:14;;;;;;;17.40;12.67;;;;;;;-148.33;100.00;56587.81;5049199;28;20480;-64
2022/03/01 04:38:39;;;;;;;15.87;13.13;;;;;;;-148.33;100.00;56587.81;5052185;28;20406;-64
2022/03/01 04:41:05;;;;;;;15.50;12.60;;;;;;;-148.33;100.00;56587.81;5045798;28;20477;-63
2022/03/01 04:43:31;;;;;;;17.73;12.80;;;;;;;-148.33;100.00;56587.81;5052336;28;20039;-64
2022/03/01 04:45:57;;;;;;;16.27;12.70;;;;;;;-148.33;100.00;56587.81;5052011;28;20477;-64
2022/03/01 04:48:23;;;;;;;16.10;13.03;;;;;;;-148.33;100.00;56587.81;5052236;28;20105;-64
2022/03/01 04:50:49;;;;;;;17.77;13.57;;;;;;;-148.33;100.00;56587.81;5052448;28;20033;-64
2022/03/01 04:53:15;;;;;;;15.60;12.63;;;;;;;-148.33;100.00;56587.81;5052230;28;20470;-63
2022/03/01 04:55:41;;;;;;;17.00;13.10;;;;;;;-148.33;100.00;56587.81;5051841;28;20040;-63
2022/03/01 04:58:06;;;;;;;16.13;12.03;;;;;;;-148.33;100.00;56587.81;5051590;28;20016;-63
2022/03/01 05:00:31;;;;;;;16.70;12.53;;;;;;;-148.33;100.00;56587.81;5051578;28;20044;-64
2022/03/01 05:02:56;;;;;;;20.63;13.70;;;;;;;-148.33;100.00;56587.81;5052092;28;20070;-63
2022/03/01 05:05:22;;;;;;;16.87;12.73;;;;;;;-148.33;100.00;56587.81;5052234;28;20024;-63
2022/03/01 05:07:48;;;;;;;14.93;12.33;;;;;;;-148.33;100.00;56587.81;5051765;28;20032;-64
2022/03/01 05:10:18;;;;;;;16.27;13.07;;;;;;;-148.33;100.00;56587.81;5051640;28;20118;-64
2022/03/01 05:12:48;;;;;;;15.65;12.73;;;;;;;-148.33;100.00;56587.81;5052005;28;20032;-64
2022/03/01 05:15:14;;;;;;;18.17;13.23;;;;;;;-148.33;100.00;56587.81;5051560;28;20058;-64
2022/03/01 05:17:40;;;;;;;15.73;12.70;;;;;;;-148.33;100.00;56587.81;5051584;28;20146;-63
2022/03/01 05:20:07;;;;;;;16.67;13.40;;;;;;;-148.33;100.00;56587.81;5051473;28;20538;-63
2022/03/01 05:22:32;;;;;;;17.07;13.70;;;;;;;-148.33;100.00;56587.81;5051307;28;20039;-64
2022/03/01 05:24:58;;;;;;;17.17;12.90;;;;;;;-148.33;100.00;56587.81;5051505;28;20033;-64
2022/03/01 05:27:23;;;;;;;16.63;13.13;;;;;;;-148.33;100.00;56587.81;5051635;28;20033;-63
2022/03/01 05:29:50;;;;;;;19.57;13.53;;;;;;;-148.33;100.00;56587.81;5044747;28;20032;-64
2022/03/01 05:32:16;;;;;;;16.33;13.03;;;;;;;-148.33;100.00;56587.81;5051514;28;20541;-64
2022/03/01 05:34:41;;;;;;;17.77;13.30;;;;;;;-148.33;100.00;56587.81;5051082;28;20039;-63
2022/03/01 05:37:06;;;;;;;17.53;12.93;;;;;;;-148.33;100.00;56587.81;5051415;28;20033;-64
2022/03/01 05:39:32;;;;;;;15.30;13.47;;;;;;;-148.33;100.00;56587.81;5051483;28;20025;-62
2022/03/01 05:41:57;;;;;;;16.20;13.63;;;;;;;-148.33;100.00;56587.81;5051132;28;20039;-64
2022/03/01 05:44:22;;;;;;;16.77;13.30;;;;;;;-148.33;100.00;56587.81;5050962;28;20115;-64
2022/03/01 05:46:48;;;;;;;18.03;13.00;;;;;;;-148.33;100.00;56587.81;5051047;28;20488;-63
2022/03/01 05:49:13;;;;;;;17.17;12.97;;;;;;;-148.33;100.00;56587.81;5051110;28;20051;-63
2022/03/01 05:51:38;;;;;;;16.97;13.30;;;;;;;-148.33;100.00;56587.81;5051204;28;20024;-63
2022/03/01 05:54:04;;;;;;;15.93;12.57;;;;;;;-148.33;100.00;56587.81;5051224;28;20639;-63
2022/03/01 05:56:29;;;;;;;16.27;13.37;;;;;;;-148.33;100.00;56587.81;5050980;28;20025;-64
2022/03/01 05:58:55;;;;;;;16.33;12.53;;;;;;;-148.33;100.00;56587.81;5050799;28;20107;-64
2022/03/01 06:01:21;;;;;;;16.00;13.10;;;;;;;-148.33;100.00;56587.81;5043136;28;20036;-64
2022/03/01 06:03:46;;;;;;;17.17;12.77;;;;;;;-148.33;100.00;56587.81;5050624;28;20090;-64
2022/03/01 06:06:11;;;;;;;18.77;13.83;;;;;;;-148.33;100.00;56587.81;5040662;28;20025;-63
2022/03/01 06:08:37;;;;;;;15.10;13.20;;;;;;;-148.33;100.00;56587.81;5039178;28;20292;-63
2022/03/01 06:11:02;;;;;;;17.77;14.83;;;;;;;-148.33;100.00;56587.81;5035471;28;20040;-64
2022/03/01 06:13:27;;;;;;;15.83;13.57;;;;;;;-148.33;100.00;56587.81;5042353;28;20017;-63
2022/03/01 06:15:53;;;;;;;17.40;14.03;;;;;;;-148.33;100.00;56587.81;5042905;28;20559;-63
2022/03/01 06:18:19;;;;;;;17.30;13.03;;;;;;;-148.33;100.00;56587.81;5046333;28;20064;-63
2022/03/01 06:20:45;;;;;;;18.77;13.83;;;;;;;-148.33;100.00;56587.81;5049445;28;20040;-63
2022/03/01 06:23:11;;;;;;;16.07;14.03;;;;;;;-148.33;100.00;56587.81;5043857;28;20346;-63
2022/03/01 06:25:36;;;;;;;17.30;14.97;;;;;;;-148.33;100.00;56587.81;5046889;28;20454;-63
2022/03/01 06:28:02;;;;;;;17.07;13.27;;;;;;;-148.33;100.00;56587.81;5043092;28;20036;-64
2022/03/01 06:30:27;;;;;;;20.33;14.93;;;;;;;-148.33;100.00;56587.81;5048468;28;20053;-64
2022/03/01 06:32:53;;;;;;;17.77;15.37;;;;;;;-148.33;100.00;56587.81;5041943;28;20026;-63
2022/03/01 06:35:18;;;;;;;18.37;14.60;;;;;;;-148.33;100.00;56587.81;5035249;28;20106;-63
2022/03/01 06:37:43;;;;;;;19.23;14.53;;;;;;;-148.33;100.00;56587.81;5038596;28;20025;-63
2022/03/01 06:40:12;;;;;;;18.67;14.70;;;;;;;-148.33;100.00;56587.81;5049935;28;20087;-63
2022/03/01 06:42:38;;;;;;;19.73;14.63;;;;;;;-148.33;100.00;56587.81;5049605;28;20032;-63
2022/03/01 06:45:04;;;;;;;17.90;12.80;;;;;;;-148.33;100.00;56587.81;5044909;28;20021;-63
2022/03/01 06:47:29;;;;;;;18.27;13.60;;;;;;;-148.33;100.00;56587.81;5049599;28;20033;-62
2022/03/01 06:49:55;;;;;;;17.53;13.97;;;;;;;-148.33;100.00;56587.81;5047492;28;20511;-63
2022/03/01 06:52:20;;;;;;;16.77;13.70;;;;;;;-148.33;100.00;56587.81;5033048;28;20399;-63
2022/03/01 06:54:46;;;;;;;16.23;14.07;;;;;;;-148.33;100.00;56587.81;5045841;28;20485;-63
2022/03/01 06:57:11;;;;;;;17.73;14.13;;;;;;;-148.33;100.00;56587.81;5047543;28;20326;-63
2022/03/01 06:59:37;;;;;;;18.60;14.23;;;;;;;-148.33;100.00;56587.81;5048848;28;20071;-64
2022/03/01 07:02:03;;;;;;;18.57;14.50;;;;;;;-148.33;100.00;56587.81;5049460;28;20049;-62
2022/03/01 07:04:28;;;;;;;19.47;14.30;;;;;;;-148.33;100.00;56587.81;5049367;28;20496;-62
2022/03/01 07:06:54;;;;;;;18.93;14.27;;;;;;;-148.33;100.00;56587.81;5049531;28;20033;-64
2022/03/01 07:09:21;;;;;;;17.03;13.70;;;;;;;-148.33;100.00;56587.81;5049292;28;20104;-63
2022/03/01 07:11:46;;;;;;;16.60;14.10;;;;;;;-148.33;100.00;56587.81;5049235;28;20024;-63
2022/03/01 07:14:11;;;;;;;17.57;14.67;;;;;;;-148.33;100.00;56587.81;5048454;28;20036;-63
2022/03/01 07:16:37;;;;;;;18.83;13.90;;;;;;;-148.33;100.00;56587.81;5048245;28;20021;-63
2022/03/01 07:19:02;;;;;;;18.77;13.93;;;;;;;-148.33;100.00;56587.81;5048500;28;20389;-63
2022/03/01 07:21:27;;;;;;;21.03;14.80;;;;;;;-148.33;100.00;56587.81;5048928;28;20469;-63
2022/03/01 07:23:53;;;;;;;18.73;14.13;;;;;;;-148.33;100.00;56587.81;5049154;28;20060;-63
2022/03/01 07:26:18;;;;;;;15.87;13.73;;;;;;;-148.33;100.00;56587.81;5049120;28;20374;-63
2022/03/01 07:28:43;;;;;;;17.87;14.03;;;;;;;-148.33;100.00;56587.81;5049379;28;20032;-63
2022/03/01 07:31:09;;;;;;;17.50;15.10;;;;;;;-148.33;100.00;56587.81;5048940;28;20080;-62
2022/03/01 07:33:34;;;;;;;30.87;15.00;;;;;;;-148.33;100.00;56587.81;5049033;28;20074;-63
2022/03/01 07:36:00;;;;;;;16.97;14.47;;;;;;;-148.33;100.00;56587.81;5049147;28;20070;-63
2022/03/01 07:38:26;;;;;;;17.20;13.33;;;;;;;-148.33;100.00;56587.81;5049011;28;20173;-64
2022/03/01 07:40:51;;;;;;;17.80;13.93;;;;;;;-148.33;100.00;56587.81;5049179;28;20025;-63
2022/03/01 07:43:16;;;;;;;16.10;13.87;;;;;;;-148.33;100.00;56587.81;5048952;28;20033;-63
2022/03/01 07:45:42;;;;;;;17.33;14.30;;;;;;;-148.33;100.00;56587.81;5048961;28;20469;-64
2022/03/01 07:48:07;;;;;;;17.03;14.60;;;;;;;-148.33;100.00;56587.81;5049189;28;20040;-63
2022/03/01 07:50:34;;;;;;;18.07;14.70;;;;;;;-148.33;100.00;56587.81;5048424;28;20492;-63
2022/03/01 07:53:00;;;;;;;17.67;13.97;;;;;;;-148.33;100.00;56587.81;5048725;28;20531;-63
2022/03/01 07:55:25;;;;;;;17.33;13.67;;;;;;;-148.33;100.00;56587.81;5048732;28;20028;-63
2022/03/01 07:57:52;;;;;;;18.67;13.77;;;;;;;-148.33;100.00;56587.81;5048841;28;20037;-63
2022/03/01 08:00:19;;;;;;;19.07;13.77;;;;;;;-148.33;100.00;56587.81;5048290;28;20468;-64
2022/03/01 08:02:44;;;;;;;17.53;14.70;;;;;;;-148.33;100.00;56587.81;5048548;28;20455;-63
2022/03/01 08:05:10;;;;;;;17.17;13.83;;;;;;;-148.33;100.00;56587.81;5048217;28;20033;-63
2022/03/01 08:07:36;;;;;;;17.00;13.37;;;;;;;-148.33;100.00;56587.81;5030466;28;20048;-63
2022/03/01 08:10:02;;;;;;;17.50;14.53;;;;;;;-148.33;100.00;56587.81;5034304;28;20033;-63
2022/03/01 08:12:28;;;;;;;17.23;13.63;;;;;;;-148.33;100.00;56587.81;5033742;28;20575;-62
2022/03/01 08:14:53;;;;;;;18.03;14.27;;;;;;;-148.33;100.00;56587.81;5034458;28;20053;-63
2022/03/01 08:17:19;;;;;;;21.13;14.67;;;;;;;-148.33;100.00;56587.81;5037166;28;20423;-63
2022/03/01 08:19:46;;;;;;;20.03;14.53;;;;;;;-148.33;100.00;56587.81;5036882;28;20097;-64
2022/03/01 08:22:12;;;;;;;17.43;14.53;;;;;;;-148.33;100.00;56587.81;5042904;28;20029;-63
2022/03/01 08:24:37;;;;;;;16.93;13.30;;;;;;;-148.33;100.00;56587.81;5039169;28;20047;-63
2022/03/01 08:27:03;;;;;;;19.60;14.97;;;;;;;-148.33;100.00;56587.81;5036411;28;20021;-63
2022/03/01 08:29:29;;;;;;;15.93;14.13;;;;;;;-148.33;100.00;56587.81;5035846;28;20029;-63
2022/03/01 08:31:54;;;;;;;17.57;13.97;;;;;;;-148.33;100.00;56587.81;5035206;28;20063;-63
2022/03/01 08:34:20;;;;;;;17.47;14.23;;;;;;;-148.33;100.00;56587.81;5041682;28;20512;-63
2022/03/01 08:36:45;;;;;;;18.33;14.40;;;;;;;-148.33;100.00;56587.81;5037635;28;20031;-64
2022/03/01 08:39:11;;;;;;;20.53;15.20;;;;;;;-148.33;100.00;56587.81;5035102;28;20037;-64
2022/03/01 08:41:36;;;;;;;19.30;14.93;;;;;;;-148.33;100.00;56587.81;5034402;28;20036;-64
2022/03/01 08:44:02;;;;;;;16.83;13.93;;;;;;;-148.33;100.00;56587.81;5042846;28;20017;-63
2022/03/01 08:46:27;;;;;;;18.50;14.63;;;;;;;-148.33;100.00;56587.81;5036546;28;20338;-63
2022/03/01 08:48:53;;;;;;;18.70;14.57;;;;;;;-148.33;100.00;56587.81;5041361;28;20053;-63
2022/03/01 08:51:21;;;;;;;17.80;13.77;;;;;;;-148.33;100.00;56587.81;5033969;28;20048;-63
2022/03/01 08:53:47;;;;;;;15.23;12.50;;;;;;;-148.33;100.00;56587.81;5035218;28;20014;-63
2022/03/01 08:56:14;;;;;;;17.97;13.70;;;;;;;-148.33;100.00;56587.81;5035666;28;20029;-63
2022/03/01 08:58:40;;;;;;;15.67;13.47;;;;;;;-148.33;100.00;56587.81;5039368;28;20052;-62
2022/03/01 09:01:05;;;;;;;18.03;13.50;;;;;;;-148.33;100.00;56587.81;5036024;28;20049;-65
2022/03/01 09:03:30;;;;;;;15.27;13.63;;;;;;;-148.33;100.00;56587.81;5046786;28;20036;-63
2022/03/01 09:05:56;;;;;;;18.53;14.47;;;;;;;-148.33;100.00;56587.81;5044337;28;20067;-64
2022/03/01 09:08:21;;;;;;;15.47;13.50;;;;;;;-148.33;100.00;56587.81;5049559;28;20032;-63
2022/03/01 09:10:46;;;;;;;17.10;13.37;;;;;;;-148.33;100.00;56587.81;5051506;28;20135;-63
2022/03/01 09:13:12;;;;;;;15.10;12.73;;;;;;;-148.33;100.00;56587.81;5052649;28;20027;-63
2022/03/01 09:15:37;;;;;;;17.00;12.73;;;;;;;-148.33;100.00;56587.81;5048358;28;20116;-64
2022/03/01 09:18:05;;;;;;;18.33;13.50;;;;;;;-148.33;100.00;56587.81;5051806;28;20535;-62
2022/03/01 09:20:30;;;;;;;16.50;14.20;;;;;;;-148.33;100.00;56587.81;5058251;28;20492;-63
2022/03/01 09:22:57;;;;;;;14.60;12.70;;;;;;;-148.33;100.00;56587.81;5051034;28;20033;-63
2022/03/01 09:25:23;;;;;;;15.70;13.70;;;;;;;-148.33;100.00;56587.81;5051408;28;20443;-64
2022/03/01 09:27:49;;;;;;;14.03;12.17;;;;;;;-148.33;100.00;56587.81;5051565;28;20060;-64
2022/03/01 09:30:15;;;;;;;15.20;12.25;;;;;;;-148.33;100.00;56587.81;5047019;28;20218;-63
2022/03/01 09:32:40;;;;;;;15.82;12.07;;;;;;;-148.33;100.00;56587.81;5038490;28;20039;-63
2022/03/01 09:35:07;;;;;;;18.05;12.38;;;;;;;-148.33;100.00;56587.81;5049431;28;20258;-63
2022/03/01 09:37:33;;;;;;;14.63;12.90;;;;;;;-148.33;100.00;56587.81;5038222;28;20026;-63
2022/03/01 09:39:59;;;;;;;14.70;12.63;;;;;;;-148.33;100.00;56587.81;5034298;28;20090;-64
2022/03/01 09:42:26;;;;;;;18.00;13.53;;;;;;;-148.33;100.00;56587.81;5036731;28;20029;-64
2022/03/01 09:44:54;;;;;;;15.93;13.33;;;;;;;-148.33;100.00;56587.81;5039991;28;20036;-63
2022/03/01 09:47:19;;;;;;;14.35;12.65;;;;;;;-148.33;100.00;56587.81;5046404;28;20024;-63
2022/03/01 09:49:44;;;;;;;15.57;13.13;;;;;;;-148.33;100.00;56587.81;5050910;28;20487;-64
2022/03/01 09:52:10;;;;;;;14.68;12.80;;;;;;;-148.33;100.00;56587.81;5043144;28;20033;-63
2022/03/01 09:54:35;;;;;;;16.95;13.18;;;;;;;-148.33;100.00;56587.81;5040939;28;20032;-62
2022/03/01 09:57:01;;;;;;;15.18;13.20;;;;;;;-148.33;100.00;56587.81;5045947;28;20033;-63
2022/03/01 09:59:26;;;;;;;15.00;12.55;;;;;;;-148.33;100.00;56587.81;5050647;28;20036;-64
2022/03/01 10:01:53;;;;;;;17.33;12.57;;;;;;;-148.33;100.00;56587.81;5050136;28;20033;-64
2022/03/01 10:04:19;;;;;;;16.45;13.05;;;;;;;-148.33;100.00;56587.81;5029538;28;20393;-64
2022/03/01 10:06:47;;;;;;;14.95;12.93;;;;;;;-148.33;100.00;56587.81;5050194;28;20053;-64
2022/03/01 10:09:14;;;;;;;15.23;13.07;;;;;;;-148.33;100.00;56587.81;5050415;28;20124;-63
2022/03/01 10:11:40;;;;;;;20.40;12.57;;;;;;;-148.33;100.00;56587.81;5050386;28;20047;-63
2022/03/01 10:14:05;;;;;;;15.27;13.18;;;;;;;-148.33;100.00;56587.81;5050235;28;20032;-63
2022/03/01 10:16:44;;;;;;;16.00;13.23;;;;;;;-148.33;100.00;56587.81;5050070;28;20056;-63
2022/03/01 10:19:16;;;;;;;18.60;12.80;;;;;;;-148.33;100.00;56587.81;5053309;28;20437;-63
2022/03/01 10:21:48;;;;;;;15.43;12.90;;;;;;;-148.33;100.00;56587.81;5049330;28;20032;-64
2022/03/01 10:24:15;;;;;;;16.58;13.20;;;;;;;-148.33;100.00;56587.81;5050191;28;20504;-63
2022/03/01 10:26:43;;;;;;;14.13;12.23;;;;;;;-148.33;100.00;56587.81;5049993;28;20064;-64
2022/03/01 10:29:09;;;;;;;15.15;13.55;;;;;;;-148.33;100.00;56587.81;5050345;28;20385;-63
2022/03/01 10:31:34;;;;;;;15.85;13.02;;;;;;;-148.33;100.00;56587.81;5049690;28;20041;-64
2022/03/01 10:34:04;;;;;;;14.73;13.05;;;;;;;-148.33;100.00;56587.81;5047848;28;20028;-64
2022/03/01 10:36:32;;;;;;;15.70;13.82;;;;;;;-148.33;100.00;56587.81;5046388;28;20030;-63
2022/03/01 10:39:01;;;;;;;15.63;13.02;;;;;;;-148.33;100.00;56587.81;5049761;28;20124;-63
2022/03/01 10:41:29;;;;;;;14.07;12.15;;;;;;;-148.33;100.00;56587.81;5054044;28;20489;-63
2022/03/01 10:43:59;;;;;;;15.93;12.70;;;;;;;-148.33;100.00;56587.81;5048603;28;20052;-64
2022/03/01 10:46:28;;;;;;;16.98;12.50;;;;;;;-148.33;100.00;56587.81;5049863;28;20044;-64
2022/03/01 10:49:10;;;;;;;15.02;12.45;;;;;;;-148.33;100.00;56587.81;5049857;28;20424;-64
2022/03/01 10:51:55;;;;;;;18.27;13.85;;;;;;;-148.33;100.00;56587.81;5053367;28;20063;-64